Time;durP1;ratioP1;P1;durP2;ratioP2;P2;SDS_P1;SDS_P2;PMS_P1;PMS_P2;Temp;Humidity;BMP_temperature;BMP_pressure;BME280_temperature;BME280_humidity;BME280_pressure;Samples;Min_cycle;Max_cycle;Signal;HPM_P1;HPM_P2
2023/06/11 00:01:43;;;;;;;16.13;5.32;;;;;;;22.82;55.35;100951.91;7362499;19;20101;-63
2023/06/11 00:04:12;;;;;;;10.05;4.00;;;;;;;22.82;55.23;100946.53;7361586;19;20063;-64
2023/06/11 00:06:39;;;;;;;13.57;4.78;;;;;;;22.81;55.64;100950.25;7362210;19;20014;-61
2023/06/11 00:09:06;;;;;;;13.60;5.68;;;;;;;22.80;55.42;100947.84;7362960;19;20034;-63
2023/06/11 00:11:34;;;;;;;15.90;5.80;;;;;;;22.77;55.65;100946.41;7363503;19;20051;-62
2023/06/11 00:14:01;;;;;;;14.60;6.05;;;;;;;22.76;55.53;100950.13;7363368;19;20019;-62
2023/06/11 00:16:32;;;;;;;13.88;4.63;;;;;;;22.73;55.15;100939.88;7360004;19;20050;-62
2023/06/11 00:19:00;;;;;;;13.63;4.27;;;;;;;22.71;56.08;100941.97;7362971;19;20035;-62
2023/06/11 00:21:28;;;;;;;13.05;4.45;;;;;;;22.69;55.51;100933.31;7362288;19;20695;-62
2023/06/11 00:23:56;;;;;;;13.88;4.47;;;;;;;22.65;55.36;100934.81;7363883;19;20474;-62
2023/06/11 00:26:25;;;;;;;13.68;4.05;;;;;;;22.63;55.45;100931.53;7363488;19;20106;-62
2023/06/11 00:28:52;;;;;;;14.27;3.97;;;;;;;22.64;55.26;100935.84;7363323;19;20014;-62
2023/06/11 00:31:20;;;;;;;10.02;3.47;;;;;;;22.59;55.79;100933.88;7359956;19;20013;-63
2023/06/11 00:33:47;;;;;;;13.57;3.38;;;;;;;22.55;55.58;100935.34;7360810;19;20811;-61
2023/06/11 00:36:14;;;;;;;11.27;3.50;;;;;;;22.49;55.94;100928.25;7361396;19;20033;-62
2023/06/11 00:38:41;;;;;;;10.75;3.75;;;;;;;22.46;56.72;100935.91;7362933;19;21096;-63
2023/06/11 00:41:08;;;;;;;13.98;4.00;;;;;;;22.42;56.93;100929.38;7363329;19;20015;-62
2023/06/11 00:43:37;;;;;;;10.43;3.63;;;;;;;22.43;57.28;100925.66;7363214;19;20022;-61
2023/06/11 00:46:10;;;;;;;13.07;3.60;;;;;;;22.42;56.98;100934.72;7361747;19;20010;-61
2023/06/11 00:48:38;;;;;;;11.88;4.10;;;;;;;22.39;56.64;100932.50;7360113;19;20010;-62
2023/06/11 00:51:06;;;;;;;11.13;3.60;;;;;;;22.36;56.47;100933.78;7365134;19;20026;-62
2023/06/11 00:53:33;;;;;;;14.20;3.55;;;;;;;22.34;56.42;100925.16;7362364;19;20038;-64
2023/06/11 00:56:01;;;;;;;10.05;3.58;;;;;;;22.32;56.64;100934.47;7363315;19;20026;-63
2023/06/11 00:58:29;;;;;;;11.98;3.30;;;;;;;22.30;56.42;100937.34;7360087;19;20007;-63
2023/06/11 01:00:58;;;;;;;11.98;3.35;;;;;;;22.29;56.31;100938.44;7363077;19;20739;-61
2023/06/11 01:03:27;;;;;;;15.00;4.22;;;;;;;22.28;57.08;100944.00;7358511;19;20006;-61
2023/06/11 01:06:06;;;;;;;11.45;3.88;;;;;;;22.23;56.92;100939.31;7360457;19;20018;-61
2023/06/11 01:08:38;;;;;;;13.27;3.70;;;;;;;22.25;58.31;100939.09;7361993;19;20098;-62
2023/06/11 01:11:13;;;;;;;11.05;3.58;;;;;;;22.22;57.52;100943.03;7362224;19;20051;-64
2023/06/11 01:13:42;;;;;;;10.18;3.83;;;;;;;22.20;57.55;100939.75;7363322;19;21066;-63
2023/06/11 01:16:15;;;;;;;14.82;5.00;;;;;;;22.17;58.37;100943.72;7358152;19;20018;-62
2023/06/11 01:18:53;;;;;;;;;;;;;;;22.15;58.21;100944.97;7358379;19;20033;-62
2023/06/11 01:21:24;;;;;;;10.15;4.88;;;;;;;22.08;58.59;100931.69;7360689;19;19994;-63
2023/06/11 01:24:11;;;;;;;13.18;3.40;;;;;;;22.02;59.46;100931.75;7361138;19;20014;-62
2023/06/11 01:26:58;;;;;;;11.50;4.07;;;;;;;21.97;59.21;100936.97;7361917;19;20013;-62
2023/06/11 01:29:28;;;;;;;13.13;3.40;;;;;;;21.92;59.60;100939.47;7359203;19;20711;-63
2023/06/11 01:31:58;;;;;;;16.38;4.15;;;;;;;21.89;59.23;100934.59;7359766;19;20114;-62
2023/06/11 01:34:25;;;;;;;9.23;3.13;;;;;;;21.87;59.27;100944.69;7358849;19;20082;-62
2023/06/11 01:36:52;;;;;;;11.05;3.67;;;;;;;21.83;59.70;100938.16;7360687;19;20015;-62
2023/06/11 01:39:19;;;;;;;11.88;4.10;;;;;;;21.81;59.59;100935.69;7358109;19;20053;-63
2023/06/11 01:41:46;;;;;;;14.60;3.90;;;;;;;21.81;61.46;100926.81;7360820;19;20022;-63
2023/06/11 01:44:14;;;;;;;11.88;3.08;;;;;;;21.76;59.95;100927.50;7361438;19;20014;-61
2023/06/11 01:46:41;;;;;;;11.25;3.50;;;;;;;21.73;59.92;100931.47;7360980;19;20114;-62
2023/06/11 01:49:08;;;;;;;11.15;3.85;;;;;;;21.71;60.12;100936.22;7356537;19;20032;-64
2023/06/11 01:51:35;;;;;;;12.75;3.70;;;;;;;21.67;60.09;100927.00;7360873;19;20501;-62
2023/06/11 01:54:02;;;;;;;12.90;3.67;;;;;;;21.67;60.17;100921.63;7359754;19;20051;-62
2023/06/11 01:56:32;;;;;;;10.43;3.30;;;;;;;21.67;60.67;100923.50;7360686;19;20023;-62
2023/06/11 01:59:00;;;;;;;12.13;3.65;;;;;;;21.69;60.09;100914.16;7360601;19;20367;-62
2023/06/11 02:01:28;;;;;;;14.23;4.50;;;;;;;21.69;60.49;100919.53;7352096;19;20019;-62
2023/06/11 02:03:56;;;;;;;12.85;3.25;;;;;;;21.68;60.36;100917.09;7358421;19;20015;-64
2023/06/11 02:06:23;;;;;;;11.23;3.65;;;;;;;21.70;60.47;100915.00;7359913;19;20517;-63
2023/06/11 02:08:50;;;;;;;13.60;3.63;;;;;;;21.69;60.29;100913.34;7359544;19;20022;-64
2023/06/11 02:11:17;;;;;;;13.40;4.65;;;;;;;21.68;60.50;100914.41;7360433;19;20598;-63
2023/06/11 02:13:44;;;;;;;14.60;3.47;;;;;;;21.69;60.01;100908.00;7358182;19;21081;-63
2023/06/11 02:16:11;;;;;;;9.13;3.30;;;;;;;21.68;60.29;100920.59;7359102;19;20622;-63
2023/06/11 02:18:38;;;;;;;11.75;3.40;;;;;;;21.64;60.74;100914.03;7358523;19;20106;-61
2023/06/11 02:21:05;;;;;;;11.13;3.35;;;;;;;21.61;60.50;100911.81;7359053;19;20022;-63
2023/06/11 02:23:32;;;;;;;11.75;3.45;;;;;;;21.60;60.08;100912.84;7359733;19;20021;-62
2023/06/11 02:25:59;;;;;;;12.85;3.00;;;;;;;21.65;61.64;100917.53;7359742;19;20020;-63
2023/06/11 02:28:26;;;;;;;10.68;3.25;;;;;;;21.68;60.34;100919.78;7362537;19;20031;-64
2023/06/11 02:30:53;;;;;;;17.92;4.13;;;;;;;21.65;60.51;100917.53;7366259;19;20510;-63
2023/06/11 02:33:20;;;;;;;9.38;3.20;;;;;;;21.62;60.67;100917.97;7366282;19;20011;-61
2023/06/11 02:35:47;;;;;;;14.00;4.32;;;;;;;21.61;61.33;100913.66;7367452;19;21753;-62
2023/06/11 02:38:14;;;;;;;9.50;3.38;;;;;;;21.57;60.75;100915.97;7364039;19;20161;-63
2023/06/11 02:40:41;;;;;;;11.15;3.20;;;;;;;21.54;60.76;100920.94;7366060;19;20468;-62
2023/06/11 02:43:09;;;;;;;13.32;3.38;;;;;;;21.56;61.14;100908.16;7360538;19;20016;-63
2023/06/11 02:45:36;;;;;;;10.32;3.30;;;;;;;21.56;60.77;100911.66;7367355;19;20010;-62
2023/06/11 02:48:03;;;;;;;10.45;3.50;;;;;;;21.55;60.64;100919.91;7363438;19;20028;-62
2023/06/11 02:50:30;;;;;;;11.60;3.90;;;;;;;21.56;62.23;100916.19;7366683;19;20097;-62
2023/06/11 02:52:57;;;;;;;12.85;3.13;;;;;;;21.55;61.02;100914.53;7363091;19;20011;-62
2023/06/11 02:55:25;;;;;;;14.13;3.60;;;;;;;21.54;60.71;100910.22;7367893;19;20015;-61
2023/06/11 02:57:52;;;;;;;13.57;3.78;;;;;;;21.50;61.33;100909.03;7364552;19;20029;-62
2023/06/11 03:00:19;;;;;;;11.80;3.65;;;;;;;21.47;61.20;100906.81;7367439;19;20034;-63
2023/06/11 03:02:46;;;;;;;14.13;3.50;;;;;;;21.43;61.21;100911.81;7363057;19;20022;-62
2023/06/11 03:05:13;;;;;;;10.20;3.10;;;;;;;21.42;61.31;100907.50;7364376;19;22065;-61
2023/06/11 03:07:41;;;;;;;13.40;4.20;;;;;;;21.40;61.91;100903.38;7364064;19;20427;-63
2023/06/11 03:10:08;;;;;;;14.00;3.42;;;;;;;21.37;61.52;100910.00;7366032;19;20498;-62
2023/06/11 03:12:35;;;;;;;14.10;3.65;;;;;;;21.33;61.66;100903.47;7365870;19;21735;-63
2023/06/11 03:15:02;;;;;;;11.15;3.40;;;;;;;21.33;61.64;100901.59;7360589;19;20055;-63
2023/06/11 03:17:29;;;;;;;15.60;3.97;;;;;;;21.34;61.58;100905.06;7361023;19;21800;-62
2023/06/11 03:19:57;;;;;;;12.45;3.05;;;;;;;21.32;61.85;100901.81;7365509;19;20006;-63
2023/06/11 03:22:24;;;;;;;16.33;4.00;;;;;;;21.29;61.52;100902.25;7365209;19;20037;-62
2023/06/11 03:24:51;;;;;;;9.82;2.97;;;;;;;21.27;61.80;100902.50;7365042;19;20006;-63
2023/06/11 03:27:18;;;;;;;11.63;3.40;;;;;;;21.29;62.22;100908.41;7364544;19;20007;-63
2023/06/11 03:29:45;;;;;;;15.13;4.72;;;;;;;21.27;61.55;100907.84;7364897;19;20012;-62
2023/06/11 03:32:12;;;;;;;14.70;4.15;;;;;;;21.24;61.87;100902.09;7359267;19;20042;-68
2023/06/11 03:34:39;;;;;;;10.38;3.45;;;;;;;21.19;61.95;100908.09;7363366;19;20925;-62
2023/06/11 03:37:06;;;;;;;13.98;3.65;;;;;;;21.14;62.90;100907.94;7363563;19;20014;-63
2023/06/11 03:39:33;;;;;;;13.15;3.75;;;;;;;21.11;62.61;100911.03;7362434;19;20018;-63
2023/06/11 03:42:00;;;;;;;10.02;3.97;;;;;;;21.09;62.10;100906.94;7365161;19;20030;-63
2023/06/11 03:44:28;;;;;;;9.60;3.88;;;;;;;21.10;62.50;100913.94;7365361;19;20018;-62
2023/06/11 03:46:55;;;;;;;12.02;3.70;;;;;;;21.08;62.52;100914.16;7362518;19;21082;-63
2023/06/11 03:49:22;;;;;;;8.90;3.53;;;;;;;21.08;62.59;100914.16;7360993;19;20022;-62
2023/06/11 03:51:49;;;;;;;13.13;4.30;;;;;;;21.06;62.51;100916.25;7364246;19;20031;-63
2023/06/11 03:54:16;;;;;;;13.63;3.70;;;;;;;21.08;62.09;100913.34;7363470;19;20039;-63
2023/06/11 03:56:43;;;;;;;14.60;3.63;;;;;;;21.04;62.49;100910.28;7362885;19;20582;-61
2023/06/11 03:59:10;;;;;;;13.18;3.50;;;;;;;21.02;62.39;100920.41;7364719;19;20014;-62
2023/06/11 04:01:37;;;;;;;10.90;3.03;;;;;;;20.95;62.87;100908.91;7362289;19;20021;-62
2023/06/11 04:04:04;;;;;;;11.57;3.55;;;;;;;20.95;63.04;100902.75;7361870;19;20041;-61
2023/06/11 04:06:42;;;;;;;11.68;3.47;;;;;;;20.90;63.12;100900.72;7363331;19;20035;-62
2023/06/11 04:09:09;;;;;;;10.70;3.50;;;;;;;20.88;63.08;100903.63;7362721;19;20344;-62
2023/06/11 04:11:36;;;;;;;13.93;3.60;;;;;;;20.87;62.99;100901.19;7362632;19;20018;-62
2023/06/11 04:14:03;;;;;;;11.05;3.83;;;;;;;20.82;63.72;100896.47;7362778;19;20086;-62
2023/06/11 04:16:30;;;;;;;13.85;3.67;;;;;;;20.79;63.56;100896.09;7362556;19;20022;-62
2023/06/11 04:18:57;;;;;;;11.93;3.90;;;;;;;20.71;63.96;100897.19;7359517;19;20018;-62
2023/06/11 04:21:24;;;;;;;12.15;3.55;;;;;;;20.75;63.41;100894.88;7362698;19;20015;-62
2023/06/11 04:23:52;;;;;;;13.23;4.20;;;;;;;20.72;63.78;100890.81;7361156;19;20019;-62
2023/06/11 04:26:19;;;;;;;12.68;3.75;;;;;;;20.75;64.10;100892.22;7362597;19;20025;-62
2023/06/11 04:28:48;;;;;;;9.48;3.25;;;;;;;20.73;63.84;100892.41;7362836;19;20123;-62
2023/06/11 04:31:15;;;;;;;11.52;4.18;;;;;;;20.72;63.69;100889.97;7360478;19;21629;-63
2023/06/11 04:33:43;;;;;;;10.80;3.95;;;;;;;20.69;63.84;100885.06;7361031;19;20022;-63
2023/06/11 04:36:10;;;;;;;12.88;3.90;;;;;;;20.69;63.94;100885.06;7363848;19;20046;-62
2023/06/11 04:38:38;;;;;;;8.40;3.53;;;;;;;20.74;63.61;100893.25;7359326;19;20043;-62
2023/06/11 04:41:06;;;;;;;17.50;4.50;;;;;;;20.73;63.65;100894.28;7364555;19;20033;-63
2023/06/11 04:43:33;;;;;;;12.57;4.55;;;;;;;20.73;63.90;100896.94;7362267;19;20010;-62
2023/06/11 04:46:03;;;;;;;12.50;3.90;;;;;;;20.71;63.84;100893.69;7362278;19;20011;-64
2023/06/11 04:48:32;;;;;;;9.43;4.03;;;;;;;20.69;64.22;100898.41;7359208;19;20025;-62
2023/06/11 04:51:00;;;;;;;14.10;4.40;;;;;;;20.72;63.74;100904.19;7362849;19;20134;-65
2023/06/11 04:53:29;;;;;;;11.85;5.32;;;;;;;20.69;63.93;100903.78;7361852;19;20202;-63
2023/06/11 04:55:58;;;;;;;15.40;4.50;;;;;;;20.66;63.94;100902.38;7362648;19;20110;-63
2023/06/11 04:58:30;;;;;;;16.40;4.13;;;;;;;20.63;64.21;100899.28;7361259;19;20014;-63
2023/06/11 05:00:58;;;;;;;11.50;4.15;;;;;;;20.55;64.42;100913.75;7360894;19;20020;-63
2023/06/11 05:03:29;;;;;;;10.45;4.10;;;;;;;20.52;64.83;100903.47;7362178;19;20037;-62
2023/06/11 05:05:56;;;;;;;11.52;4.35;;;;;;;20.52;64.67;100902.69;7359387;19;20011;-62
2023/06/11 05:08:25;;;;;;;13.30;4.50;;;;;;;20.48;64.72;100907.63;7362693;19;20014;-62
2023/06/11 05:10:52;;;;;;;9.77;3.88;;;;;;;20.47;65.26;100909.47;7362105;19;20014;-62
2023/06/11 05:13:24;;;;;;;13.38;4.53;;;;;;;20.48;64.98;100900.41;7361445;19;20007;-62
2023/06/11 05:15:56;;;;;;;11.25;3.78;;;;;;;20.49;65.20;100907.41;7358153;19;20426;-62
2023/06/11 05:18:25;;;;;;;11.53;4.53;;;;;;;20.49;65.02;100911.94;7357666;19;20014;-62
2023/06/11 05:20:53;;;;;;;15.60;3.88;;;;;;;20.55;66.85;100910.25;7356790;19;20010;-62
2023/06/11 05:23:28;;;;;;;14.63;3.97;;;;;;;20.59;65.54;100909.59;7359762;19;20404;-63
2023/06/11 05:26:00;;;;;;;11.50;3.50;;;;;;;20.67;64.56;100913.88;7361537;19;20105;-62
2023/06/11 05:28:28;;;;;;;16.50;4.43;;;;;;;20.72;64.35;100901.50;7361482;19;20420;-62
2023/06/11 05:30:55;;;;;;;14.18;3.75;;;;;;;20.74;64.55;100911.97;7361251;19;20019;-63
2023/06/11 05:33:22;;;;;;;12.73;3.50;;;;;;;20.73;64.51;100911.13;7359234;19;20018;-62
2023/06/11 05:35:51;;;;;;;11.40;3.88;;;;;;;20.68;64.73;100905.63;7361239;19;20031;-61
2023/06/11 05:38:19;;;;;;;12.85;4.50;;;;;;;20.67;64.52;100911.22;7361323;19;20015;-62
2023/06/11 05:40:46;;;;;;;9.68;3.90;;;;;;;20.67;64.78;100903.19;7360688;19;20593;-62
2023/06/11 05:43:13;;;;;;;9.27;3.67;;;;;;;20.70;64.58;100903.56;7361889;19;20931;-64
2023/06/11 05:45:49;;;;;;;17.67;4.85;;;;;;;20.70;64.80;100905.41;7360759;19;20015;-61
2023/06/11 05:48:17;;;;;;;9.35;3.58;;;;;;;20.73;64.85;100896.94;7356444;19;20033;-63
2023/06/11 05:50:44;;;;;;;11.98;3.95;;;;;;;20.78;64.87;100903.28;7362518;19;20566;-63
2023/06/11 05:53:12;;;;;;;11.25;4.18;;;;;;;20.81;64.83;100902.03;7360138;19;20041;-61
2023/06/11 05:55:39;;;;;;;9.80;3.67;;;;;;;20.85;65.55;100909.41;7361111;19;20085;-63
2023/06/11 05:58:07;;;;;;;11.23;3.95;;;;;;;20.89;64.91;100904.44;7360950;19;20019;-62
2023/06/11 06:00:34;;;;;;;14.45;4.72;;;;;;;20.96;64.64;100899.03;7360314;19;20011;-64
2023/06/11 06:03:03;;;;;;;13.13;4.10;;;;;;;21.02;64.28;100896.31;7363313;19;20343;-62
2023/06/11 06:05:30;;;;;;;11.05;3.92;;;;;;;21.09;64.58;100894.38;7367285;19;20511;-62
2023/06/11 06:07:57;;;;;;;12.07;3.55;;;;;;;21.14;63.91;100899.91;7366314;19;20021;-62
2023/06/11 06:10:24;;;;;;;13.70;4.80;;;;;;;21.25;63.63;100901.88;7367655;19;20019;-63
2023/06/11 06:12:51;;;;;;;12.73;3.70;;;;;;;21.45;63.45;100899.00;7363288;19;20015;-63
2023/06/11 06:15:19;;;;;;;12.10;3.38;;;;;;;21.57;62.59;100902.59;7367279;19;20026;-63
2023/06/11 06:17:46;;;;;;;8.57;3.65;;;;;;;21.65;62.30;100901.44;7357442;19;20013;-62
2023/06/11 06:20:13;;;;;;;10.73;3.95;;;;;;;21.72;62.74;100903.03;7367643;19;20049;-62
2023/06/11 06:22:41;;;;;;;14.15;4.63;;;;;;;21.76;63.47;100906.06;7367168;19;20022;-62
2023/06/11 06:25:08;;;;;;;10.75;3.70;;;;;;;21.77;62.54;100905.84;7368425;19;20026;-61
2023/06/11 06:27:36;;;;;;;16.08;3.75;;;;;;;21.76;61.83;100904.22;7370389;19;20023;-62
2023/06/11 06:30:06;;;;;;;13.27;4.05;;;;;;;21.90;62.16;100906.72;7370124;19;20032;-63
2023/06/11 06:32:33;;;;;;;15.30;5.18;;;;;;;22.14;61.92;100905.84;7360744;19;20014;-62
2023/06/11 06:35:00;;;;;;;13.95;4.25;;;;;;;22.31;60.97;100903.31;7364088;19;20719;-62
2023/06/11 06:37:27;;;;;;;11.95;4.07;;;;;;;22.32;60.86;100911.16;7366017;19;20011;-62
2023/06/11 06:39:55;;;;;;;10.10;3.63;;;;;;;22.32;60.88;100896.91;7365878;19;20086;-63
2023/06/11 06:42:22;;;;;;;11.48;4.38;;;;;;;22.28;60.50;100899.25;7365929;19;20051;-63
2023/06/11 06:44:49;;;;;;;11.85;3.83;;;;;;;22.28;60.85;100904.59;7367263;19;20859;-62
2023/06/11 06:47:16;;;;;;;13.07;4.93;;;;;;;22.24;61.11;100908.78;7362180;19;20006;-63
2023/06/11 06:49:43;;;;;;;14.25;4.47;;;;;;;22.18;60.95;100905.16;7366641;19;20018;-62
2023/06/11 06:52:11;;;;;;;11.57;3.90;;;;;;;22.18;61.58;100909.69;7366053;19;20011;-63
2023/06/11 06:54:39;;;;;;;15.13;4.85;;;;;;;22.20;61.67;100898.75;7365590;19;20161;-61
2023/06/11 06:57:09;;;;;;;11.75;4.10;;;;;;;22.20;61.37;100904.13;7367833;19;20026;-62
2023/06/11 06:59:36;;;;;;;12.15;4.47;;;;;;;22.18;61.29;100907.84;7365941;19;20021;-63
2023/06/11 07:02:03;;;;;;;12.30;3.78;;;;;;;22.25;61.50;100913.09;7364113;19;20011;-62
2023/06/11 07:04:34;;;;;;;12.85;4.05;;;;;;;22.29;61.88;100918.84;7365671;19;20025;-62
2023/06/11 07:07:01;;;;;;;9.13;3.92;;;;;;;22.35;61.32;100915.25;7364601;19;20035;-62
2023/06/11 07:09:28;;;;;;;9.38;4.45;;;;;;;22.45;60.66;100919.00;7364688;19;20826;-63
2023/06/11 07:11:55;;;;;;;17.10;4.63;;;;;;;22.47;60.36;100913.41;7365945;19;20018;-62
2023/06/11 07:14:22;;;;;;;11.90;4.28;;;;;;;22.45;60.38;100916.31;7360758;19;20048;-62
2023/06/11 07:16:50;;;;;;;10.50;4.18;;;;;;;22.46;60.63;100917.13;7364622;19;20540;-62
2023/06/11 07:19:17;;;;;;;12.40;4.55;;;;;;;22.50;60.33;100918.34;7361736;19;20380;-63
2023/06/11 07:21:44;;;;;;;14.93;4.55;;;;;;;22.51;60.52;100914.56;7363466;19;20568;-62
2023/06/11 07:24:11;;;;;;;13.32;4.72;;;;;;;22.53;60.79;100923.22;7363334;19;20680;-62
2023/06/11 07:26:38;;;;;;;14.13;4.40;;;;;;;22.59;61.08;100925.81;7365160;19;20021;-62
2023/06/11 07:29:06;;;;;;;10.38;3.88;;;;;;;22.70;61.14;100926.91;7363371;19;20018;-62
2023/06/11 07:31:36;;;;;;;10.90;4.05;;;;;;;22.81;59.95;100919.94;7364110;19;20025;-62
2023/06/11 07:34:04;;;;;;;16.25;4.72;;;;;;;22.96;60.21;100921.13;7364264;19;21779;-62
2023/06/11 07:36:31;;;;;;;9.50;3.80;;;;;;;23.14;61.10;100924.75;7366276;19;20010;-62
2023/06/11 07:38:58;;;;;;;11.73;4.15;;;;;;;23.40;58.90;100927.81;7361712;19;20439;-62
2023/06/11 07:41:25;;;;;;;12.52;4.35;;;;;;;23.90;57.56;100923.75;7364921;19;20029;-62
2023/06/11 07:43:53;;;;;;;11.05;4.13;;;;;;;24.69;54.48;100925.53;7364182;19;20376;-63
2023/06/11 07:46:20;;;;;;;10.25;3.53;;;;;;;25.24;54.38;100924.84;7363704;19;20376;-62
2023/06/11 07:48:48;;;;;;;11.80;3.88;;;;;;;25.55;53.14;100943.09;7359181;19;20116;-62
2023/06/11 07:51:15;;;;;;;14.55;4.10;;;;;;;25.61;51.91;100936.72;7365267;19;20021;-64
2023/06/11 07:53:46;;;;;;;11.18;4.78;;;;;;;25.65;52.47;100943.22;7363194;19;20022;-62
2023/06/11 07:56:13;;;;;;;15.30;4.35;;;;;;;25.71;51.68;100938.72;7362065;19;20106;-62
2023/06/11 07:58:40;;;;;;;17.45;4.55;;;;;;;25.66;51.30;100941.34;7361962;19;20081;-62
2023/06/11 08:01:08;;;;;;;12.43;4.47;;;;;;;25.51;52.27;100942.75;7361472;19;20017;-62
2023/06/11 08:03:35;;;;;;;14.73;4.35;;;;;;;25.39;53.13;100942.06;7362699;19;20018;-62
2023/06/11 08:06:03;;;;;;;11.80;4.32;;;;;;;25.41;53.24;100952.56;7364238;19;20022;-62
2023/06/11 08:08:30;;;;;;;11.52;4.35;;;;;;;25.35;53.64;100942.78;7362517;19;20097;-64
2023/06/11 08:10:57;;;;;;;12.52;4.40;;;;;;;25.21;53.34;100941.50;7363002;19;20049;-61
2023/06/11 08:13:25;;;;;;;14.77;4.72;;;;;;;25.16;54.02;100944.09;7363645;19;20022;-63
2023/06/11 08:15:52;;;;;;;11.88;4.60;;;;;;;25.18;53.89;100947.38;7363277;19;20015;-62
2023/06/11 08:18:19;;;;;;;11.75;5.18;;;;;;;25.22;53.49;100938.56;7360218;19;20038;-62
2023/06/11 08:20:47;;;;;;;11.85;4.82;;;;;;;25.35;53.18;100945.47;7361967;19;20017;-62
2023/06/11 08:23:14;;;;;;;13.00;4.63;;;;;;;25.38;53.53;100948.50;7361604;19;20094;-62
2023/06/11 08:25:42;;;;;;;10.98;4.45;;;;;;;25.41;53.27;100948.00;7360903;19;20681;-62
2023/06/11 08:28:09;;;;;;;14.98;5.18;;;;;;;25.55;52.90;100948.47;7362926;19;20102;-62
2023/06/11 08:30:36;;;;;;;10.25;4.25;;;;;;;25.79;52.96;100949.09;7361624;19;20116;-62
2023/06/11 08:33:03;;;;;;;13.02;6.07;;;;;;;25.97;52.11;100957.69;7360977;19;21171;-62
2023/06/11 08:35:31;;;;;;;15.65;5.60;;;;;;;26.17;51.44;100949.00;7360921;19;20512;-62
2023/06/11 08:37:58;;;;;;;12.93;5.63;;;;;;;26.32;51.19;100943.81;7362982;19;20309;-62
2023/06/11 08:40:27;;;;;;;11.98;5.03;;;;;;;26.43;50.26;100944.72;7359094;19;20551;-63
2023/06/11 08:42:54;;;;;;;12.52;5.93;;;;;;;26.49;49.64;100948.28;7360352;19;20177;-62
2023/06/11 08:45:21;;;;;;;14.95;5.18;;;;;;;26.55;49.30;100936.47;7362911;19;20102;-62
2023/06/11 08:47:50;;;;;;;15.32;5.35;;;;;;;26.51;49.64;100936.19;7359129;19;20105;-62
2023/06/11 08:50:21;;;;;;;13.75;5.57;;;;;;;26.36;50.71;100941.44;7360607;19;20010;-62
2023/06/11 08:52:51;;;;;;;14.82;5.28;;;;;;;26.28;50.48;100931.91;7362840;19;20010;-63
2023/06/11 08:55:18;;;;;;;11.77;4.85;;;;;;;26.32;51.20;100932.19;7360012;19;20918;-62
2023/06/11 08:57:46;;;;;;;13.10;5.65;;;;;;;26.31;50.67;100930.59;7362244;19;20138;-62
2023/06/11 09:00:14;;;;;;;8.27;4.85;;;;;;;26.47;51.27;100932.34;7360950;19;20014;-62
2023/06/11 09:02:42;;;;;;;14.50;5.38;;;;;;;26.47;49.78;100924.25;7358255;19;20370;-63
2023/06/11 09:05:10;;;;;;;14.30;5.57;;;;;;;26.41;49.68;100933.38;7363072;19;20037;-63
2023/06/11 09:07:46;;;;;;;14.75;5.70;;;;;;;26.49;50.48;100924.81;7360974;19;20018;-63
2023/06/11 09:10:14;;;;;;;12.63;5.22;;;;;;;26.62;49.87;100928.97;7361512;19;20018;-64
2023/06/11 09:12:41;;;;;;;14.65;6.20;;;;;;;26.63;49.69;100919.81;7360902;19;20011;-63
2023/06/11 09:15:09;;;;;;;11.05;5.72;;;;;;;26.51;49.72;100932.66;7360664;19;20526;-62
2023/06/11 09:17:37;;;;;;;11.98;5.82;;;;;;;26.38;49.93;100928.47;7355722;19;20030;-62
2023/06/11 09:20:07;;;;;;;15.50;6.40;;;;;;;26.33;50.15;100928.44;7358780;19;20018;-63
2023/06/11 09:22:37;;;;;;;9.45;5.60;;;;;;;26.30;50.86;100924.38;7362902;19;20042;-63
2023/06/11 09:25:09;;;;;;;10.52;5.22;;;;;;;26.28;50.77;100925.69;7358802;19;21728;-63
2023/06/11 09:27:39;;;;;;;11.68;5.78;;;;;;;26.22;50.99;100930.19;7362006;19;20117;-64
2023/06/11 09:30:08;;;;;;;20.08;6.68;;;;;;;26.18;50.56;100925.53;7361334;19;20018;-63
2023/06/11 09:32:41;;;;;;;16.45;6.07;;;;;;;26.16;51.12;100917.69;7358511;19;20137;-65
2023/06/11 09:35:10;;;;;;;11.32;5.53;;;;;;;26.20;51.23;100920.72;7359768;19;20093;-62
2023/06/11 09:37:40;;;;;;;11.88;6.30;;;;;;;26.25;50.74;100918.91;7362978;19;20459;-63
2023/06/11 09:40:11;;;;;;;11.63;5.80;;;;;;;26.29;50.27;100916.50;7366064;19;21078;-62
2023/06/11 09:42:40;;;;;;;15.55;6.60;;;;;;;26.36;50.81;100920.63;7369441;19;20018;-63
2023/06/11 09:45:13;;;;;;;11.90;6.05;;;;;;;26.46;50.37;100921.81;7364871;19;20017;-63
2023/06/11 09:47:42;;;;;;;9.65;5.55;;;;;;;26.48;50.83;100919.66;7364702;19;20043;-62
2023/06/11 09:50:13;;;;;;;10.23;5.70;;;;;;;26.62;49.60;100912.75;7368013;19;20033;-62
2023/06/11 09:52:41;;;;;;;13.02;5.68;;;;;;;26.70;49.81;100915.00;7366718;19;20915;-62
2023/06/11 09:55:10;;;;;;;13.43;5.70;;;;;;;26.73;49.73;100922.59;7368010;19;20022;-63
2023/06/11 09:57:38;;;;;;;13.68;5.65;;;;;;;26.75;48.93;100915.06;7366801;19;20034;-63
2023/06/11 10:00:09;;;;;;;15.18;7.28;;;;;;;26.74;48.90;100918.81;7361743;19;20031;-64
2023/06/11 10:02:38;;;;;;;18.73;6.38;;;;;;;26.68;49.43;100914.44;7353537;19;20007;-63
2023/06/11 10:05:08;;;;;;;13.63;6.13;;;;;;;26.65;49.59;100913.09;7365975;19;20058;-63
2023/06/11 10:07:42;;;;;;;15.10;7.07;;;;;;;26.69;49.41;100918.78;7363372;19;20051;-61
2023/06/11 10:10:11;;;;;;;10.30;6.03;;;;;;;26.69;49.30;100924.19;7368284;19;20022;-62
2023/06/11 10:12:39;;;;;;;10.30;5.63;;;;;;;26.70;48.40;100915.00;7366151;19;20086;-61
2023/06/11 10:15:11;;;;;;;12.48;6.40;;;;;;;26.74;48.58;100919.63;7363301;19;20075;-63
2023/06/11 10:17:47;;;;;;;10.75;6.13;;;;;;;26.76;48.67;100917.50;7361735;19;20078;-63
2023/06/11 10:20:18;;;;;;;10.95;6.10;;;;;;;26.78;48.78;100919.94;7363950;19;20021;-62
2023/06/11 10:22:46;;;;;;;12.05;4.88;;;;;;;26.80;48.83;100926.72;7366282;19;20082;-62
2023/06/11 10:25:13;;;;;;;10.75;5.93;;;;;;;26.81;48.97;100925.66;7365046;19;20029;-63
2023/06/11 10:27:42;;;;;;;14.23;5.93;;;;;;;26.90;48.79;100931.41;7367030;19;20054;-63
2023/06/11 10:30:10;;;;;;;12.20;6.35;;;;;;;26.97;48.77;100928.50;7354618;19;20026;-63
2023/06/11 10:32:49;;;;;;;17.48;6.32;;;;;;;27.04;47.53;100926.38;7366713;19;20015;-62
2023/06/11 10:35:29;;;;;;;12.93;6.15;;;;;;;27.10;47.75;100926.16;7363155;19;20025;-62
2023/06/11 10:38:07;;;;;;;10.68;5.85;;;;;;;27.17;48.43;100929.44;7366273;19;20010;-62
2023/06/11 10:40:36;;;;;;;12.43;5.30;;;;;;;27.22;48.70;100926.81;7363031;19;20098;-62
2023/06/11 10:43:15;;;;;;;9.45;5.30;;;;;;;27.25;48.48;100928.16;7367329;19;20379;-63
2023/06/11 10:45:43;;;;;;;8.32;4.85;;;;;;;27.26;48.89;100924.38;7357099;19;20014;-62
2023/06/11 10:48:17;;;;;;;11.02;5.78;;;;;;;27.29;48.50;100920.31;7359808;19;20026;-62
2023/06/11 10:50:44;;;;;;;11.13;6.28;;;;;;;27.38;47.78;100935.00;7364094;19;20023;-62
2023/06/11 10:53:13;;;;;;;12.50;6.22;;;;;;;27.41;47.36;100935.28;7368487;19;20011;-62
2023/06/11 10:55:43;;;;;;;13.40;5.90;;;;;;;27.44;47.21;100929.34;7364188;19;20034;-62
2023/06/11 10:58:23;;;;;;;7.82;5.78;;;;;;;27.48;47.20;100927.75;7371839;19;20014;-63
2023/06/11 11:00:52;;;;;;;8.70;6.15;;;;;;;27.56;47.16;100924.59;7363014;19;20006;-64
2023/06/11 11:03:21;;;;;;;8.90;5.38;;;;;;;27.64;46.59;100929.47;7364799;19;20474;-64
2023/06/11 11:05:50;;;;;;;10.40;5.50;;;;;;;27.75;46.33;100921.41;7366696;19;20106;-66
2023/06/11 11:08:17;;;;;;;13.30;6.10;;;;;;;27.84;45.93;100923.34;7367886;19;20090;-63
2023/06/11 11:10:56;;;;;;;13.73;5.90;;;;;;;27.91;46.32;100923.09;7366511;19;20022;-63
2023/06/11 11:13:24;;;;;;;10.32;6.35;;;;;;;27.93;45.52;100924.47;7368746;19;20018;-63
2023/06/11 11:15:51;;;;;;;9.20;5.85;;;;;;;27.99;45.37;100912.56;7366123;19;20010;-61
2023/06/11 11:18:19;;;;;;;11.40;6.25;;;;;;;28.07;45.94;100917.47;7359471;19;20011;-62
2023/06/11 11:20:46;;;;;;;10.38;6.10;;;;;;;28.12;45.52;100911.31;7364846;19;20010;-63
2023/06/11 11:23:14;;;;;;;11.20;6.45;;;;;;;28.21;45.27;100912.41;7364638;19;20018;-62
2023/06/11 11:25:42;;;;;;;10.10;6.35;;;;;;;28.29;44.65;100917.28;7367314;19;20050;-62